Ashcroft, Canada
Current Conditions -  °F | °C
As of 10:00 AM on Thursday 23 Oct 2014 (Local Time) from CYKA Reporting Station
Overcast Overcast  
Wind Chill: 50°   Ceiling: 20000
Heat Index: 50°   Visibility: 40mi
Dew Point: 37°   Wind: 5mph
Humidity: 62%   Direction: 160°SSE
Pressure: 29.7"   Gusts: NA
Location:  50.72°N, 121.27°W
Report Text: CYKA 231700Z 16004KT 40SM SCT120 OVC200 10/03 A2970 RMK AC3CS5 SLP062
Loading
Personal Weather Stations






























Interactive Weather Map
Tropical Storm Tracking
New forecast layout! Learn more

10-Day Weather Forecast

Advertisements
Track Severe Weather on mobile